This is the latest recevied weather packets stored in our database for station/object PY2XH-13. If no packets are shown the sender has not sent any weather packets the latest 10 day(s).
| Time | Temp. | Humidity | Pressure | Rain* | Wind** | Luminosity | Snow |
|---|---|---|---|---|---|---|---|
| 1778037364 | 22.78° C | 72% | 1036.1 hPa | - | - | - | - |
| 1778035564 | 22.78° C | 73% | 1036.1 hPa | - | - | - | - |
| 1778033764 | 22.78° C | 73% | 1036.4 hPa | - | - | - | - |
| 1778031965 | 22.78° C | 73% | 1036.4 hPa | - | - | - | - |
| 1778030165 | 22.78° C | 74% | 1036.3 hPa | - | - | - | - |
| 1778028364 | 0° C | - | 0 hPa | - | - | - | - |
| 1778026565 | 22.78° C | 73% | 1036.5 hPa | - | - | - | - |
| 1778024764 | 23.33° C | 73% | 1036.3 hPa | - | - | - | - |
| 1778022964 | 23.33° C | 73% | 1036.6 hPa | - | - | - | - |
| 1778021164 | 23.33° C | 71% | 1036.2 hPa | - | - | - | - |
| 1778019364 | 23.33° C | 71% | 1035.9 hPa | - | - | - | - |
| 1778017564 | 23.33° C | 70% | 1035.7 hPa | - | - | - | - |
| 1778015765 | 23.33° C | 69% | 1035.5 hPa | - | - | - | - |
| 1778013964 | 23.33° C | 66% | 1035.3 hPa | - | - | - | - |
| 1778012165 | 23.33° C | 62% | 1035 hPa | - | - | - | - |
| 1778010365 | 22.78° C | 62% | 1034.8 hPa | - | - | - | - |
| 1778008565 | 23.33° C | 62% | 1034.7 hPa | - | - | - | - |
| 1778006765 | 23.33° C | 62% | 1034.6 hPa | - | - | - | - |
| 1778004964 | 23.33° C | 61% | 1034.5 hPa | - | - | - | - |
| 1778003164 | 24.44° C | 53% | 1034.7 hPa | - | - | - | - |
| 1778001364 | 23.89° C | 57% | 1034.8 hPa | - | - | - | - |
| 1777999564 | 23.89° C | 59% | 1035.1 hPa | - | - | - | - |
| 1777997765 | 23.33° C | 62% | 1035.5 hPa | - | - | - | - |
| 1777995965 | 22.78° C | 66% | 1035.8 hPa | - | - | - | - |
| 1777994165 | 22.78° C | 66% | 1036.2 hPa | - | - | - | - |
* Rain since midnight (hover to see other rain measurements)
** Current wind speed in m/s (hover to see current wind gust speed)